createdAt,value
2023-02-27T00:00:22.110Z,99309.91
2023-02-27T00:02:51.972Z,99313.78
2023-02-27T00:05:19.868Z,99316.22
2023-02-27T00:07:46.750Z,99320.72
2023-02-27T00:10:14.546Z,99319.72
2023-02-27T00:12:42.376Z,99330.56
2023-02-27T00:15:14.680Z,99324.31
2023-02-27T00:17:42.784Z,99317.56
2023-02-27T00:20:12.467Z,99325.97
2023-02-27T00:22:42.802Z,99323.22
2023-02-27T00:25:10.604Z,99321.25
2023-02-27T00:27:37.730Z,99316.28
2023-02-27T00:30:06.140Z,99307.97
2023-02-27T00:32:33.592Z,99308.09
2023-02-27T00:35:01.299Z,99315.22
2023-02-27T00:37:28.096Z,99309.50
2023-02-27T00:39:55.141Z,99302.38
2023-02-27T00:42:22.335Z,99297.50
2023-02-27T00:44:49.210Z,99307.28
2023-02-27T00:47:16.153Z,99314.00
2023-02-27T00:49:43.500Z,99316.59
2023-02-27T00:52:11.048Z,99307.09
2023-02-27T00:54:37.969Z,99308.09
2023-02-27T00:57:05.033Z,99311.03
2023-02-27T00:59:31.872Z,99304.59
2023-02-27T01:01:58.720Z,99308.34
2023-02-27T01:04:28.330Z,99310.31
2023-02-27T01:06:55.320Z,99316.66
2023-02-27T01:09:22.264Z,99308.13
2023-02-27T01:11:52.283Z,99313.13
2023-02-27T01:14:19.549Z,99328.78
2023-02-27T01:16:46.390Z,99326.56
2023-02-27T01:19:15.845Z,99315.91
2023-02-27T01:21:44.245Z,99320.41
2023-02-27T01:24:12.565Z,99319.75
2023-02-27T01:26:40.732Z,99318.44
2023-02-27T01:29:08.021Z,99318.97
2023-02-27T01:31:35.184Z,99317.91
2023-02-27T01:34:02.196Z,99309.50
2023-02-27T01:36:29.166Z,99324.00
2023-02-27T01:38:56.000Z,99320.78
2023-02-27T01:41:22.886Z,99321.78
2023-02-27T01:43:59.086Z,99325.53
2023-02-27T01:46:27.221Z,99320.44
2023-02-27T01:48:59.973Z,99337.59
2023-02-27T01:51:31.682Z,99338.84
2023-02-27T01:53:59.135Z,99341.53
2023-02-27T01:56:29.087Z,99348.53
2023-02-27T01:59:01.816Z,99344.19
2023-02-27T02:01:30.261Z,99341.38
2023-02-27T02:04:12.089Z,99338.50
2023-02-27T02:06:45.066Z,99330.84
2023-02-27T02:09:13.970Z,99333.16
2023-02-27T02:11:42.167Z,99334.22
2023-02-27T02:14:10.999Z,99341.34
2023-02-27T02:16:55.222Z,99342.31
2023-02-27T02:19:25.316Z,99336.72
2023-02-27T02:22:29.287Z,99346.00
2023-02-27T02:25:37.340Z,99345.28
2023-02-27T02:28:22.713Z,99332.28
2023-02-27T02:31:09.467Z,99347.78
2023-02-27T02:34:07.980Z,99342.72
2023-02-27T02:36:56.207Z,99352.22
2023-02-27T02:39:35.700Z,99356.09
2023-02-27T02:42:13.015Z,99350.75
2023-02-27T02:44:48.756Z,99353.16
2023-02-27T02:47:31.066Z,99353.00
2023-02-27T02:50:37.521Z,99357.81
2023-02-27T02:53:36.568Z,99360.03
2023-02-27T02:56:18.099Z,99355.41
2023-02-27T02:58:59.851Z,99352.75
2023-02-27T03:02:07.442Z,99366.38
2023-02-27T03:04:39.646Z,99379.00
2023-02-27T03:07:27.490Z,99369.81
2023-02-27T03:10:08.339Z,99366.44
2023-02-27T03:12:39.570Z,99363.38
2023-02-27T03:15:18.386Z,99361.50
2023-02-27T03:17:48.567Z,99368.66
2023-02-27T03:20:43.644Z,99368.78
2023-02-27T03:23:19.960Z,99379.03
2023-02-27T03:25:50.730Z,99390.38
2023-02-27T03:28:23.751Z,99380.03
2023-02-27T03:31:01.736Z,99369.94
2023-02-27T03:33:35.211Z,99362.91
2023-02-27T03:36:13.166Z,99360.03
2023-02-27T03:39:00.825Z,99376.81
2023-02-27T03:41:52.434Z,99387.72
2023-02-27T03:45:01.367Z,99380.72
2023-02-27T03:47:29.132Z,99387.28
2023-02-27T03:49:57.014Z,99385.75
2023-02-27T03:52:26.260Z,99381.41
2023-02-27T03:55:02.016Z,99387.72
2023-02-27T03:57:30.826Z,99380.72
2023-02-27T03:59:59.131Z,99382.97
2023-02-27T04:02:27.465Z,99387.56
2023-02-27T04:04:55.391Z,99390.38
2023-02-27T04:08:14.355Z,99389.81
2023-02-27T04:10:56.023Z,99379.34
2023-02-27T04:13:28.709Z,99377.53
2023-02-27T04:16:20.509Z,99378.78
2023-02-27T04:19:11.632Z,99374.72
2023-02-27T04:22:04.560Z,99363.97
2023-02-27T04:24:37.645Z,99362.84
2023-02-27T04:27:30.672Z,99368.44
2023-02-27T04:30:25.927Z,99387.72
2023-02-27T04:32:56.760Z,99396.94
2023-02-27T04:35:42.910Z,99399.47
2023-02-27T04:38:16.168Z,99409.53
2023-02-27T04:40:49.609Z,99407.97
2023-02-27T04:43:18.185Z,99409.09
2023-02-27T04:45:47.105Z,99413.50
2023-02-27T04:51:29.434Z,99413.50
2023-02-27T04:54:06.434Z,99410.47
2023-02-27T04:56:41.406Z,99413.78
2023-02-27T04:59:15.079Z,99417.56
2023-02-27T05:01:47.951Z,99429.75
2023-02-27T05:04:19.239Z,99431.69
2023-02-27T05:06:48.964Z,99433.41
2023-02-27T05:09:38.603Z,99444.03
2023-02-27T05:12:39.062Z,99441.63
2023-02-27T05:15:13.573Z,99447.53
2023-02-27T05:17:40.401Z,99444.59
2023-02-27T05:20:09.104Z,99460.78
2023-02-27T05:22:59.855Z,99461.63
2023-02-27T05:25:49.550Z,99465.66
2023-02-27T05:28:42.638Z,99477.13
2023-02-27T05:31:18.458Z,99480.38
2023-02-27T05:33:57.008Z,99491.28
2023-02-27T05:37:00.338Z,99496.22
2023-02-27T05:39:31.685Z,99473.94
2023-02-27T05:42:05.521Z,99483.88
2023-02-27T05:44:37.550Z,99501.09
2023-02-27T05:47:16.308Z,99505.44
2023-02-27T05:49:47.794Z,99508.66
2023-02-27T05:52:19.620Z,99510.88
2023-02-27T05:55:05.147Z,99512.25
2023-02-27T05:58:01.187Z,99504.31
2023-02-27T06:00:39.618Z,99521.94
2023-02-27T06:03:07.045Z,99535.06
2023-02-27T06:05:37.233Z,99532.84
2023-02-27T06:08:04.134Z,99539.44
2023-02-27T06:10:31.244Z,99538.16
2023-02-27T06:12:58.091Z,99537.88
2023-02-27T06:15:25.006Z,99537.19
2023-02-27T06:17:51.915Z,99542.28
2023-02-27T06:20:18.936Z,99542.47
2023-02-27T06:22:46.079Z,99555.34
2023-02-27T06:25:13.333Z,99558.84
2023-02-27T06:27:40.351Z,99567.09
2023-02-27T06:30:07.681Z,99565.84
2023-02-27T06:32:34.789Z,99563.31
2023-02-27T06:35:03.181Z,99573.47
2023-02-27T06:37:30.006Z,99571.53
2023-02-27T06:39:56.902Z,99576.97
2023-02-27T06:42:24.005Z,99584.09
2023-02-27T06:44:50.787Z,99591.41
2023-02-27T06:47:18.161Z,99584.78
2023-02-27T06:49:45.041Z,99587.56
2023-02-27T06:52:11.887Z,99585.38
2023-02-27T06:54:38.846Z,99587.50
2023-02-27T06:57:05.715Z,99590.75
2023-02-27T06:59:32.628Z,99596.72
2023-02-27T07:02:00.674Z,99599.25
2023-02-27T07:04:27.655Z,99598.16
2023-02-27T07:07:35.189Z,99602.34
2023-02-27T07:09:41.654Z,99608.47
2023-02-27T07:12:08.886Z,99595.13
2023-02-27T07:14:35.772Z,99593.91
2023-02-27T07:17:06.194Z,99590.94
2023-02-27T07:19:36.011Z,99584.78
2023-02-27T07:22:03.889Z,99580.34
2023-02-27T07:24:30.830Z,99586.00
2023-02-27T07:26:57.818Z,99583.06
2023-02-27T07:29:24.653Z,99588.63
2023-02-27T07:31:51.589Z,99590.19
2023-02-27T07:34:18.503Z,99585.31
2023-02-27T07:36:45.404Z,99583.69
2023-02-27T07:39:13.407Z,99576.09
2023-02-27T07:41:40.549Z,99578.59
2023-02-27T07:44:08.723Z,99576.31
2023-02-27T07:46:36.247Z,99586.72
2023-02-27T07:49:03.241Z,99585.69
2023-02-27T07:51:30.119Z,99586.22
2023-02-27T07:53:58.664Z,99586.28
2023-02-27T07:56:28.841Z,99572.59
2023-02-27T07:58:56.032Z,99566.69
2023-02-27T08:01:23.078Z,99563.50
2023-02-27T08:03:49.913Z,99565.16
2023-02-27T08:06:17.019Z,99555.47
2023-02-27T08:08:43.992Z,99570.91
2023-02-27T08:11:11.490Z,99577.16
2023-02-27T08:16:25.599Z,99606.19
2023-02-27T08:18:52.689Z,99607.34
2023-02-27T08:21:19.551Z,99606.78
2023-02-27T08:23:46.350Z,99614.50
2023-02-27T08:26:13.670Z,99611.69
2023-02-27T08:28:41.317Z,99623.56
2023-02-27T08:31:08.213Z,99627.38
2023-02-27T08:33:35.839Z,99623.50
2023-02-27T08:36:02.831Z,99623.69
2023-02-27T08:38:29.668Z,99633.25
2023-02-27T08:40:56.915Z,99639.63
2023-02-27T08:43:24.064Z,99646.47
2023-02-27T08:45:51.818Z,99643.75
2023-02-27T08:48:18.792Z,99650.84
2023-02-27T08:50:46.868Z,99662.69
2023-02-27T08:53:14.216Z,99668.91
2023-02-27T08:55:41.279Z,99678.41
2023-02-27T08:58:09.075Z,99680.47
2023-02-27T09:00:36.245Z,99681.31
2023-02-27T09:03:03.183Z,99690.34
2023-02-27T09:05:30.094Z,99689.84
2023-02-27T09:07:57.010Z,99691.16
2023-02-27T09:10:24.069Z,99697.38
2023-02-27T09:12:50.892Z,99699.56
2023-02-27T09:15:17.793Z,99702.41
2023-02-27T09:17:44.725Z,99701.41
2023-02-27T09:20:12.452Z,99707.94
2023-02-27T09:22:40.609Z,99714.63
2023-02-27T09:25:07.802Z,99710.09
2023-02-27T09:27:35.437Z,99709.09
2023-02-27T09:30:02.379Z,99720.28
2023-02-27T09:32:29.410Z,99724.53
2023-02-27T09:34:56.363Z,99727.66
2023-02-27T09:37:25.092Z,99738.91
2023-02-27T09:39:51.995Z,99732.28
2023-02-27T09:42:26.288Z,99737.03
2023-02-27T09:44:57.862Z,99740.94
2023-02-27T09:47:35.624Z,99739.31
2023-02-27T09:50:24.560Z,99741.59
2023-02-27T09:52:51.461Z,99741.47
2023-02-27T09:55:21.693Z,99746.34
2023-02-27T09:58:01.565Z,99743.75
2023-02-27T10:00:44.497Z,99735.88
2023-02-27T10:03:23.054Z,99752.44
2023-02-27T10:05:55.828Z,99742.16
2023-02-27T10:08:34.104Z,99737.38
2023-02-27T10:11:05.630Z,99744.44
2023-02-27T10:13:38.505Z,99741.41
2023-02-27T10:16:09.844Z,99736.44
2023-02-27T10:18:58.337Z,99735.75
2023-02-27T10:21:34.467Z,99733.34
2023-02-27T10:24:21.713Z,99728.75
2023-02-27T10:26:52.888Z,99728.47
2023-02-27T10:29:25.485Z,99732.78
2023-02-27T10:32:00.508Z,99725.19
2023-02-27T10:34:30.411Z,99742.53
2023-02-27T10:37:00.783Z,99736.97
2023-02-27T10:39:29.647Z,99741.81
2023-02-27T10:42:05.556Z,99732.44
2023-02-27T10:44:34.454Z,99731.53
2023-02-27T10:47:01.363Z,99739.13
2023-02-27T10:49:32.505Z,99738.25
2023-02-27T10:52:10.936Z,99735.81
2023-02-27T10:54:39.878Z,99721.16
2023-02-27T10:57:28.585Z,99715.84
2023-02-27T11:00:04.126Z,99725.28
2023-02-27T11:02:40.593Z,99713.41
2023-02-27T11:05:50.390Z,99712.22
2023-02-27T11:08:23.691Z,99718.56
2023-02-27T11:11:11.140Z,99706.66
2023-02-27T11:13:40.951Z,99702.19
2023-02-27T11:16:20.522Z,99716.31
2023-02-27T11:18:52.652Z,99709.25
2023-02-27T11:21:29.219Z,99710.47
2023-02-27T11:23:59.762Z,99715.84
2023-02-27T11:26:34.237Z,99708.56
2023-02-27T11:29:11.761Z,99711.50
2023-02-27T11:31:40.040Z,99708.06
2023-02-27T11:34:08.420Z,99709.00
2023-02-27T11:36:45.123Z,99703.09
2023-02-27T11:39:50.076Z,99712.75
2023-02-27T11:42:21.902Z,99711.66
2023-02-27T11:46:05.117Z,99701.63
2023-02-27T11:48:18.717Z,99703.41
2023-02-27T11:51:16.278Z,99696.25
2023-02-27T11:53:59.953Z,99697.00
2023-02-27T11:56:36.067Z,99699.78
2023-02-27T11:59:32.123Z,99701.63
2023-02-27T12:02:15.506Z,99690.88
2023-02-27T12:04:54.638Z,99690.44
2023-02-27T12:07:32.520Z,99695.06
2023-02-27T12:10:06.069Z,99691.31
2023-02-27T12:13:04.284Z,99707.69
2023-02-27T12:15:40.310Z,99690.88
2023-02-27T12:18:29.010Z,99690.13
2023-02-27T12:21:06.085Z,99689.78
2023-02-27T12:24:05.209Z,99685.88
2023-02-27T12:26:37.374Z,99695.50
2023-02-27T12:29:15.938Z,99687.16
2023-02-27T12:31:50.533Z,99701.63
2023-02-27T12:34:43.258Z,99693.94
2023-02-27T12:37:13.826Z,99698.88
2023-02-27T12:39:44.281Z,99698.50
2023-02-27T12:42:40.503Z,99678.75
2023-02-27T12:45:53.419Z,99683.28
2023-02-27T12:48:55.311Z,99688.06
2023-02-27T12:51:49.538Z,99686.13
2023-02-27T12:54:37.755Z,99675.75
2023-02-27T12:57:25.778Z,99673.19
2023-02-27T12:59:56.868Z,99685.47
2023-02-27T13:02:35.996Z,99716.31
2023-02-27T13:05:32.432Z,99706.03
2023-02-27T13:08:14.968Z,99726.56
2023-02-27T13:10:49.296Z,99718.84
2023-02-27T13:13:27.150Z,99726.41
2023-02-27T13:16:00.707Z,99713.97
2023-02-27T13:18:45.724Z,99709.81
2023-02-27T13:21:21.191Z,99715.09
2023-02-27T13:24:12.432Z,99694.91
2023-02-27T13:26:47.466Z,99706.50
2023-02-27T13:29:17.262Z,99700.56
2023-02-27T13:31:53.567Z,99697.38
2023-02-27T13:34:28.623Z,99698.09
2023-02-27T13:37:02.850Z,99706.31
2023-02-27T13:39:48.934Z,99702.34
2023-02-27T13:42:28.949Z,99710.59
2023-02-27T13:45:26.007Z,99707.72
2023-02-27T13:47:52.859Z,99702.41
2023-02-27T13:50:23.149Z,99699.56
2023-02-27T13:52:50.272Z,99709.38
2023-02-27T13:55:43.216Z,99707.53
2023-02-27T13:58:18.151Z,99711.88
2023-02-27T14:00:55.567Z,99709.81
2023-02-27T14:03:26.673Z,99715.56
2023-02-27T14:05:58.460Z,99721.25
2023-02-27T14:08:30.329Z,99721.59
2023-02-27T14:11:02.858Z,99721.78
2023-02-27T14:13:52.247Z,99727.81
2023-02-27T14:16:37.758Z,99728.19
2023-02-27T14:19:19.707Z,99733.03
2023-02-27T14:22:21.808Z,99734.56
2023-02-27T14:25:06.535Z,99727.53
2023-02-27T14:27:44.801Z,99730.78
2023-02-27T14:30:40.872Z,99724.06
2023-02-27T14:33:24.116Z,99728.75
2023-02-27T14:36:08.004Z,99722.94
2023-02-27T14:38:35.852Z,99725.31
2023-02-27T14:41:39.738Z,99725.31
2023-02-27T14:44:19.140Z,99736.53
2023-02-27T14:46:46.355Z,99729.66
2023-02-27T14:49:39.636Z,99741.59
2023-02-27T14:52:29.785Z,99742.94
2023-02-27T14:55:30.031Z,99747.13
2023-02-27T14:58:17.751Z,99746.44
2023-02-27T15:01:10.994Z,99753.66
2023-02-27T15:03:44.177Z,99753.34
2023-02-27T15:06:18.696Z,99760.03
2023-02-27T15:08:51.077Z,99772.25
2023-02-27T15:11:22.203Z,99765.22
2023-02-27T15:13:57.610Z,99774.59
2023-02-27T15:16:24.517Z,99771.91
2023-02-27T15:18:54.445Z,99776.91
2023-02-27T15:21:24.684Z,99773.72
2023-02-27T15:24:35.243Z,99780.25
2023-02-27T15:27:16.510Z,99776.56
2023-02-27T15:30:00.429Z,99782.91
2023-02-27T15:32:42.845Z,99788.13
2023-02-27T15:35:20.080Z,99804.50
2023-02-27T15:37:52.796Z,99801.13
2023-02-27T15:40:29.987Z,99808.66
2023-02-27T15:42:58.361Z,99818.16
2023-02-27T15:45:31.883Z,99821.63
2023-02-27T15:47:59.346Z,99821.63
2023-02-27T15:50:34.105Z,99827.81
2023-02-27T15:53:22.485Z,99839.25
2023-02-27T15:55:56.053Z,99850.78
2023-02-27T15:58:39.002Z,99849.88
2023-02-27T16:01:23.107Z,99850.59
2023-02-27T16:03:54.452Z,99843.06
2023-02-27T16:06:27.726Z,99847.41
2023-02-27T16:09:01.014Z,99864.16
2023-02-27T16:11:33.549Z,99857.41
2023-02-27T16:14:01.072Z,99860.44
2023-02-27T16:16:31.828Z,99866.69
2023-02-27T16:19:02.725Z,99880.81
2023-02-27T16:21:31.389Z,99876.06
2023-02-27T16:24:21.953Z,99881.25
2023-02-27T16:26:53.231Z,99884.75
2023-02-27T16:29:22.736Z,99891.75
2023-02-27T16:31:53.862Z,99892.69
2023-02-27T16:34:45.806Z,99905.59
2023-02-27T16:37:32.066Z,99901.53
2023-02-27T16:39:58.968Z,99905.56
2023-02-27T16:42:25.819Z,99917.84
2023-02-27T16:44:52.689Z,99921.91
2023-02-27T16:47:19.550Z,99916.38
2023-02-27T16:49:47.493Z,99928.28
2023-02-27T16:52:14.289Z,99929.88
2023-02-27T16:54:41.129Z,99930.09
2023-02-27T16:57:09.895Z,99933.78
2023-02-27T16:59:42.068Z,99939.66
2023-02-27T17:02:15.124Z,99934.84
2023-02-27T17:04:48.050Z,99947.25
2023-02-27T17:07:17.110Z,99952.56
2023-02-27T17:09:45.573Z,99955.75
2023-02-27T17:12:13.835Z,99952.84
2023-02-27T17:14:40.611Z,99966.63
2023-02-27T17:17:07.588Z,99965.75
2023-02-27T17:19:34.671Z,99970.03
2023-02-27T17:22:01.502Z,99974.59
2023-02-27T17:24:28.409Z,99972.97
2023-02-27T17:26:55.768Z,99968.78
2023-02-27T17:29:23.004Z,99978.75
2023-02-27T17:31:50.432Z,99984.22
2023-02-27T17:34:17.621Z,99981.88
2023-02-27T17:36:44.623Z,99988.72
2023-02-27T17:39:14.238Z,99982.13
2023-02-27T17:41:42.912Z,99991.13
2023-02-27T17:44:11.653Z,99995.38
2023-02-27T17:46:39.697Z,99998.16
2023-02-27T17:49:07.457Z,100000.16
2023-02-27T17:51:34.336Z,100004.72
2023-02-27T17:54:03.158Z,100010.66
2023-02-27T17:56:30.764Z,100021.59
2023-02-27T17:58:58.550Z,100027.19
2023-02-27T18:01:27.030Z,100029.75
2023-02-27T18:03:54.917Z,100027.75
2023-02-27T18:06:23.244Z,100034.94
2023-02-27T18:08:50.530Z,100044.75
2023-02-27T18:11:19.899Z,100035.06
2023-02-27T18:13:47.641Z,100031.28
2023-02-27T18:16:14.945Z,100044.88
2023-02-27T18:18:43.255Z,100042.78
2023-02-27T18:21:22.967Z,100046.41
2023-02-27T18:23:51.734Z,100047.41
2023-02-27T18:26:29.925Z,100059.03
2023-02-27T18:29:03.512Z,100074.06
2023-02-27T18:31:33.384Z,100064.34
2023-02-27T18:34:01.266Z,100067.06
2023-02-27T18:36:29.934Z,100054.72
2023-02-27T18:38:57.735Z,100061.56
2023-02-27T18:41:25.499Z,100064.94
2023-02-27T18:43:52.552Z,100065.91
2023-02-27T18:46:19.745Z,100074.47
2023-02-27T18:48:47.422Z,100085.72
2023-02-27T18:51:16.491Z,100074.59
2023-02-27T18:53:45.997Z,100076.16
2023-02-27T18:56:14.388Z,100081.47
2023-02-27T18:58:41.209Z,100085.53
2023-02-27T19:01:08.804Z,100076.28
2023-02-27T19:03:36.293Z,100081.47
2023-02-27T19:06:03.558Z,100080.91
2023-02-27T19:08:30.593Z,100081.97
2023-02-27T19:10:58.628Z,100080.31
2023-02-27T19:13:26.100Z,100085.22
2023-02-27T19:15:53.999Z,100091.63
2023-02-27T19:18:20.873Z,100088.56
2023-02-27T19:20:48.120Z,100083.41
2023-02-27T19:23:14.933Z,100098.69
2023-02-27T19:25:42.154Z,100100.50
2023-02-27T19:28:11.180Z,100098.34
2023-02-27T19:30:40.796Z,100104.44
2023-02-27T19:33:07.594Z,100106.53
2023-02-27T19:35:34.440Z,100104.56
2023-02-27T19:38:01.364Z,100111.59
2023-02-27T19:40:28.490Z,100108.97
2023-02-27T19:42:55.684Z,100104.75
2023-02-27T19:45:23.450Z,100116.41
2023-02-27T19:47:50.591Z,100128.44
2023-02-27T19:50:17.896Z,100129.09
2023-02-27T19:52:44.891Z,100127.81
2023-02-27T19:55:11.929Z,100139.97
2023-02-27T19:57:38.886Z,100134.34
2023-02-27T20:00:07.241Z,100137.22
2023-02-27T20:02:42.441Z,100135.53
2023-02-27T20:05:12.128Z,100146.03
2023-02-27T20:07:40.625Z,100142.59
2023-02-27T20:10:07.692Z,100144.44
2023-02-27T20:12:34.794Z,100150.34
2023-02-27T20:15:08.714Z,100156.84
2023-02-27T20:17:35.713Z,100158.91
2023-02-27T20:20:05.097Z,100150.66
2023-02-27T20:22:33.794Z,100159.03
2023-02-27T20:25:00.848Z,100156.50
2023-02-27T20:27:28.414Z,100167.59
2023-02-27T20:29:57.464Z,100161.28
2023-02-27T20:32:25.336Z,100161.75
2023-02-27T20:34:54.754Z,100161.81
2023-02-27T20:37:22.984Z,100170.69
2023-02-27T20:39:50.206Z,100176.16
2023-02-27T20:42:17.063Z,100184.56
2023-02-27T20:44:43.954Z,100183.56
2023-02-27T20:47:11.067Z,100188.31
2023-02-27T20:49:38.690Z,100189.69
2023-02-27T20:52:05.561Z,100185.28
2023-02-27T20:54:32.439Z,100182.69
2023-02-27T20:56:59.247Z,100193.94
2023-02-27T20:59:26.300Z,100192.53
2023-02-27T21:01:54.276Z,100188.16
2023-02-27T21:04:42.541Z,100198.81
2023-02-27T21:07:14.554Z,100199.78
2023-02-27T21:09:41.850Z,100205.34
2023-02-27T21:12:09.702Z,100207.81
2023-02-27T21:14:37.477Z,100210.84
2023-02-27T21:17:05.464Z,100216.59
2023-02-27T21:19:32.390Z,100206.59
2023-02-27T21:21:59.185Z,100205.34
2023-02-27T21:24:26.194Z,100211.50
2023-02-27T21:26:53.178Z,100219.63
2023-02-27T21:29:21.392Z,100233.25
2023-02-27T21:31:49.972Z,100228.31
2023-02-27T21:34:21.018Z,100238.06
2023-02-27T21:36:48.602Z,100231.91
2023-02-27T21:39:21.433Z,100240.50
2023-02-27T21:41:49.261Z,100247.44
2023-02-27T21:44:18.607Z,100248.28
2023-02-27T21:46:45.895Z,100251.66
2023-02-27T21:49:27.713Z,100248.47
2023-02-27T21:51:55.128Z,100255.00
2023-02-27T21:54:22.097Z,100259.50
2023-02-27T21:56:49.619Z,100263.75
2023-02-27T21:59:18.973Z,100266.16
2023-02-27T22:01:47.629Z,100269.66
2023-02-27T22:04:16.250Z,100271.59
2023-02-27T22:06:43.517Z,100279.59
2023-02-27T22:09:10.408Z,100284.63
2023-02-27T22:11:37.338Z,100290.63
2023-02-27T22:14:06.111Z,100285.00
2023-02-27T22:16:34.364Z,100288.72
2023-02-27T22:19:07.594Z,100299.16
2023-02-27T22:21:35.971Z,100306.28
2023-02-27T22:24:03.690Z,100308.03
2023-02-27T22:26:32.240Z,100313.13
2023-02-27T22:29:00.206Z,100309.91
2023-02-27T22:31:30.769Z,100300.94
2023-02-27T22:34:03.979Z,100307.41
2023-02-27T22:36:32.513Z,100312.59
2023-02-27T22:39:00.032Z,100314.75
2023-02-27T22:41:31.043Z,100321.38
2023-02-27T22:43:59.869Z,100329.09
2023-02-27T22:46:32.910Z,100326.75
2023-02-27T22:49:10.175Z,100328.41
2023-02-27T22:51:37.883Z,100334.38
2023-02-27T22:54:06.414Z,100329.28
2023-02-27T22:56:34.416Z,100334.38
2023-02-27T22:59:01.356Z,100338.28
2023-02-27T23:01:31.285Z,100344.84
2023-02-27T23:04:01.197Z,100349.72
2023-02-27T23:06:33.877Z,100350.22
2023-02-27T23:09:02.345Z,100355.06
2023-02-27T23:11:29.566Z,100366.91
2023-02-27T23:13:56.706Z,100360.19
2023-02-27T23:16:25.101Z,100370.44
2023-02-27T23:18:57.313Z,100376.31
2023-02-27T23:21:35.941Z,100361.91
2023-02-27T23:24:15.561Z,100358.69
2023-02-27T23:26:46.615Z,100355.09
2023-02-27T23:29:13.767Z,100360.00
2023-02-27T23:31:42.321Z,100360.59
2023-02-27T23:34:09.570Z,100366.25
2023-02-27T23:36:38.182Z,100391.00
2023-02-27T23:39:06.500Z,100409.28
2023-02-27T23:41:34.090Z,100400.97
2023-02-27T23:44:19.700Z,100400.78
2023-02-27T23:46:46.627Z,100403.81
2023-02-27T23:49:13.466Z,100405.81
2023-02-27T23:51:40.321Z,100415.81
2023-02-27T23:54:07.264Z,100404.81
2023-02-27T23:56:34.240Z,100414.47
2023-02-27T23:59:06.042Z,100417.63
